sensor_id;sensor_type;location;lat;lon;timestamp;pressure;altitude;pressure_sealevel;temperature;humidity
77023;BME280;65952;51.440;-2.054;2023-07-31T00:00:29;99521.03;;;18.29;76.47
77023;BME280;65952;51.440;-2.054;2023-07-31T00:02:54;99508.97;;;18.37;76.45
77023;BME280;65952;51.440;-2.054;2023-07-31T00:05:20;99511.91;;;18.35;76.60
77023;BME280;65952;51.440;-2.054;2023-07-31T00:07:46;99505.75;;;18.40;76.07
77023;BME280;65952;51.440;-2.054;2023-07-31T00:10:11;99502.94;;;18.34;76.88
77023;BME280;65952;51.440;-2.054;2023-07-31T00:12:39;99504.25;;;18.32;76.66
77023;BME280;65952;51.440;-2.054;2023-07-31T00:15:06;99490.31;;;18.28;76.93
77023;BME280;65952;51.440;-2.054;2023-07-31T00:17:32;99484.25;;;18.38;76.66
77023;BME280;65952;51.440;-2.054;2023-07-31T00:19:57;99476.00;;;18.33;76.61
77023;BME280;65952;51.440;-2.054;2023-07-31T00:22:23;99486.97;;;18.38;76.68
77023;BME280;65952;51.440;-2.054;2023-07-31T00:24:48;99490.28;;;18.40;76.81
77023;BME280;65952;51.440;-2.054;2023-07-31T00:27:13;99501.03;;;18.35;77.01
77023;BME280;65952;51.440;-2.054;2023-07-31T00:29:39;99501.03;;;18.47;75.92
77023;BME280;65952;51.440;-2.054;2023-07-31T00:32:05;99498.09;;;18.25;77.34
77023;BME280;65952;51.440;-2.054;2023-07-31T00:34:30;99493.94;;;18.46;76.64
77023;BME280;65952;51.440;-2.054;2023-07-31T00:36:56;99488.38;;;18.41;76.85
77023;BME280;65952;51.440;-2.054;2023-07-31T00:39:21;99473.50;;;18.43;76.79
77023;BME280;65952;51.440;-2.054;2023-07-31T00:41:46;99481.91;;;18.42;77.03
77023;BME280;65952;51.440;-2.054;2023-07-31T00:44:12;99471.72;;;18.49;76.55
77023;BME280;65952;51.440;-2.054;2023-07-31T00:46:37;99468.25;;;18.54;76.31
77023;BME280;65952;51.440;-2.054;2023-07-31T00:49:03;99456.81;;;18.51;76.40
77023;BME280;65952;51.440;-2.054;2023-07-31T00:51:30;99454.47;;;18.43;77.13
77023;BME280;65952;51.440;-2.054;2023-07-31T00:53:55;99440.25;;;18.53;76.90
77023;BME280;65952;51.440;-2.054;2023-07-31T00:56:21;99431.66;;;18.44;77.35
77023;BME280;65952;51.440;-2.054;2023-07-31T00:58:47;99433.03;;;18.59;76.79
77023;BME280;65952;51.440;-2.054;2023-07-31T01:01:12;99423.00;;;18.59;76.40
77023;BME280;65952;51.440;-2.054;2023-07-31T01:03:38;99429.97;;;18.55;76.88
77023;BME280;65952;51.440;-2.054;2023-07-31T01:08:55;99432.00;;;18.48;77.10
77023;BME280;65952;51.440;-2.054;2023-07-31T01:11:29;99437.56;;;18.41;77.56
77023;BME280;65952;51.440;-2.054;2023-07-31T01:13:55;99439.91;;;18.49;77.44
77023;BME280;65952;51.440;-2.054;2023-07-31T01:16:21;99436.13;;;18.50;77.38
77023;BME280;65952;51.440;-2.054;2023-07-31T01:18:46;99419.34;;;18.54;77.44
77023;BME280;65952;51.440;-2.054;2023-07-31T01:24:08;99414.91;;;18.35;78.17
77023;BME280;65952;51.440;-2.054;2023-07-31T01:26:43;99404.69;;;18.55;77.76
77023;BME280;65952;51.440;-2.054;2023-07-31T01:31:46;99400.84;;;18.39;78.38
77023;BME280;65952;51.440;-2.054;2023-07-31T01:34:14;99401.91;;;18.38;78.40
77023;BME280;65952;51.440;-2.054;2023-07-31T01:36:41;99391.81;;;18.50;77.96
77023;BME280;65952;51.440;-2.054;2023-07-31T01:39:06;99388.28;;;18.49;78.23
77023;BME280;65952;51.440;-2.054;2023-07-31T01:41:32;99389.50;;;18.42;78.68
77023;BME280;65952;51.440;-2.054;2023-07-31T01:43:57;99377.13;;;18.34;78.67
77023;BME280;65952;51.440;-2.054;2023-07-31T01:46:23;99378.13;;;18.45;78.31
77023;BME280;65952;51.440;-2.054;2023-07-31T01:48:48;99372.75;;;18.62;77.91
77023;BME280;65952;51.440;-2.054;2023-07-31T01:51:13;99371.47;;;18.52;78.07
77023;BME280;65952;51.440;-2.054;2023-07-31T01:53:39;99366.72;;;18.60;77.70
77023;BME280;65952;51.440;-2.054;2023-07-31T01:56:04;99367.69;;;18.54;78.07
77023;BME280;65952;51.440;-2.054;2023-07-31T01:58:30;99376.72;;;18.71;77.46
77023;BME280;65952;51.440;-2.054;2023-07-31T02:00:55;99371.91;;;18.61;77.95
77023;BME280;65952;51.440;-2.054;2023-07-31T02:03:20;99373.91;;;18.66;77.80
77023;BME280;65952;51.440;-2.054;2023-07-31T02:05:49;99376.53;;;18.61;78.13
77023;BME280;65952;51.440;-2.054;2023-07-31T02:08:16;99369.63;;;18.70;77.84
77023;BME280;65952;51.440;-2.054;2023-07-31T02:10:41;99364.38;;;18.80;77.00
77023;BME280;65952;51.440;-2.054;2023-07-31T02:13:07;99371.34;;;18.76;77.08
77023;BME280;65952;51.440;-2.054;2023-07-31T02:15:34;99363.19;;;18.76;77.62
77023;BME280;65952;51.440;-2.054;2023-07-31T02:17:59;99361.75;;;18.86;77.17
77023;BME280;65952;51.440;-2.054;2023-07-31T02:20:25;99363.84;;;18.66;77.91
77023;BME280;65952;51.440;-2.054;2023-07-31T02:22:50;99357.44;;;18.73;78.03
77023;BME280;65952;51.440;-2.054;2023-07-31T02:25:16;99370.22;;;18.89;77.06
77023;BME280;65952;51.440;-2.054;2023-07-31T02:27:42;99363.63;;;18.85;77.55
77023;BME280;65952;51.440;-2.054;2023-07-31T02:30:07;99370.97;;;18.84;77.49
77023;BME280;65952;51.440;-2.054;2023-07-31T02:32:33;99360.56;;;18.81;77.86
77023;BME280;65952;51.440;-2.054;2023-07-31T02:34:58;99353.63;;;18.74;78.02
77023;BME280;65952;51.440;-2.054;2023-07-31T02:37:24;99353.50;;;18.80;77.89
77023;BME280;65952;51.440;-2.054;2023-07-31T02:39:50;99346.16;;;18.81;77.81
77023;BME280;65952;51.440;-2.054;2023-07-31T02:42:15;99352.00;;;18.90;77.23
77023;BME280;65952;51.440;-2.054;2023-07-31T02:44:41;99345.34;;;18.80;78.13
77023;BME280;65952;51.440;-2.054;2023-07-31T02:47:06;99339.41;;;18.83;77.74
77023;BME280;65952;51.440;-2.054;2023-07-31T02:49:31;99331.25;;;18.83;78.02
77023;BME280;65952;51.440;-2.054;2023-07-31T02:51:57;99327.31;;;18.91;77.53
77023;BME280;65952;51.440;-2.054;2023-07-31T02:54:22;99330.50;;;18.88;77.58
77023;BME280;65952;51.440;-2.054;2023-07-31T02:56:48;99325.28;;;18.87;77.54
77023;BME280;65952;51.440;-2.054;2023-07-31T02:59:13;99324.66;;;18.79;78.03
77023;BME280;65952;51.440;-2.054;2023-07-31T03:01:38;99332.63;;;18.69;78.64
77023;BME280;65952;51.440;-2.054;2023-07-31T03:04:04;99324.97;;;18.66;78.89
77023;BME280;65952;51.440;-2.054;2023-07-31T03:06:30;99321.09;;;18.79;78.26
77023;BME280;65952;51.440;-2.054;2023-07-31T03:08:55;99316.50;;;18.79;78.43
77023;BME280;65952;51.440;-2.054;2023-07-31T03:11:20;99330.91;;;18.80;78.26
77023;BME280;65952;51.440;-2.054;2023-07-31T03:13:46;99315.66;;;18.79;78.34
77023;BME280;65952;51.440;-2.054;2023-07-31T03:16:11;99320.28;;;18.78;78.42
77023;BME280;65952;51.440;-2.054;2023-07-31T03:18:37;99324.66;;;18.79;78.38
77023;BME280;65952;51.440;-2.054;2023-07-31T03:21:02;99330.09;;;18.79;78.66
77023;BME280;65952;51.440;-2.054;2023-07-31T03:23:27;99325.56;;;18.85;78.41
77023;BME280;65952;51.440;-2.054;2023-07-31T03:25:57;99335.38;;;18.86;78.26
77023;BME280;65952;51.440;-2.054;2023-07-31T03:28:23;99325.22;;;18.81;78.61
77023;BME280;65952;51.440;-2.054;2023-07-31T03:30:48;99327.94;;;18.81;78.60
77023;BME280;65952;51.440;-2.054;2023-07-31T03:33:14;99332.47;;;18.76;78.68
77023;BME280;65952;51.440;-2.054;2023-07-31T03:35:39;99328.34;;;18.73;79.20
77023;BME280;65952;51.440;-2.054;2023-07-31T03:38:04;99319.31;;;18.84;78.41
77023;BME280;65952;51.440;-2.054;2023-07-31T03:40:30;99313.28;;;18.82;78.45
77023;BME280;65952;51.440;-2.054;2023-07-31T03:42:55;99317.41;;;18.68;78.93
77023;BME280;65952;51.440;-2.054;2023-07-31T03:45:21;99324.56;;;18.74;78.68
77023;BME280;65952;51.440;-2.054;2023-07-31T03:47:46;99328.56;;;18.55;79.17
77023;BME280;65952;51.440;-2.054;2023-07-31T03:50:11;99316.13;;;18.59;79.25
77023;BME280;65952;51.440;-2.054;2023-07-31T03:52:37;99312.19;;;18.49;79.14
77023;BME280;65952;51.440;-2.054;2023-07-31T03:55:02;99305.59;;;18.45;79.39
77023;BME280;65952;51.440;-2.054;2023-07-31T03:57:28;99317.97;;;18.53;78.87
77023;BME280;65952;51.440;-2.054;2023-07-31T03:59:53;99316.47;;;18.45;79.07
77023;BME280;65952;51.440;-2.054;2023-07-31T04:02:19;99315.91;;;18.60;78.41
77023;BME280;65952;51.440;-2.054;2023-07-31T04:04:45;99309.63;;;18.43;79.22
77023;BME280;65952;51.440;-2.054;2023-07-31T04:07:11;99325.06;;;18.25;79.27
77023;BME280;65952;51.440;-2.054;2023-07-31T04:09:36;99319.75;;;18.47;78.73
77023;BME280;65952;51.440;-2.054;2023-07-31T04:12:01;99321.56;;;18.59;78.26
77023;BME280;65952;51.440;-2.054;2023-07-31T04:14:27;99335.00;;;18.48;77.97
77023;BME280;65952;51.440;-2.054;2023-07-31T04:16:52;99326.03;;;18.65;77.61
77023;BME280;65952;51.440;-2.054;2023-07-31T04:19:17;99332.22;;;18.60;77.51
77023;BME280;65952;51.440;-2.054;2023-07-31T04:21:43;99326.03;;;18.65;77.38
77023;BME280;65952;51.440;-2.054;2023-07-31T04:24:09;99337.75;;;18.65;76.94
77023;BME280;65952;51.440;-2.054;2023-07-31T04:26:34;99327.84;;;18.59;77.12
77023;BME280;65952;51.440;-2.054;2023-07-31T04:28:59;99332.09;;;18.55;77.08
77023;BME280;65952;51.440;-2.054;2023-07-31T04:31:25;99336.56;;;18.61;77.09
77023;BME280;65952;51.440;-2.054;2023-07-31T04:33:50;99327.84;;;18.59;76.69
77023;BME280;65952;51.440;-2.054;2023-07-31T04:36:15;99331.56;;;18.53;76.83
77023;BME280;65952;51.440;-2.054;2023-07-31T04:38:41;99338.72;;;18.59;76.64
77023;BME280;65952;51.440;-2.054;2023-07-31T04:41:06;99343.75;;;18.67;76.21
77023;BME280;65952;51.440;-2.054;2023-07-31T04:43:32;99343.56;;;18.57;76.94
77023;BME280;65952;51.440;-2.054;2023-07-31T04:45:57;99331.81;;;18.51;76.85
77023;BME280;65952;51.440;-2.054;2023-07-31T04:48:23;99339.16;;;18.68;76.01
77023;BME280;65952;51.440;-2.054;2023-07-31T04:50:49;99335.00;;;18.48;76.83
77023;BME280;65952;51.440;-2.054;2023-07-31T04:53:14;99330.97;;;18.51;76.47
77023;BME280;65952;51.440;-2.054;2023-07-31T04:55:39;99333.38;;;18.64;76.40
77023;BME280;65952;51.440;-2.054;2023-07-31T04:58:05;99325.78;;;18.49;76.70
77023;BME280;65952;51.440;-2.054;2023-07-31T05:00:30;99325.88;;;18.55;76.63
77023;BME280;65952;51.440;-2.054;2023-07-31T05:02:56;99329.72;;;18.59;76.32
77023;BME280;65952;51.440;-2.054;2023-07-31T05:05:21;99338.22;;;18.45;76.85
77023;BME280;65952;51.440;-2.054;2023-07-31T05:07:47;99338.44;;;18.44;76.86
77023;BME280;65952;51.440;-2.054;2023-07-31T05:10:12;99336.31;;;18.46;76.93
77023;BME280;65952;51.440;-2.054;2023-07-31T05:12:38;99326.25;;;18.46;76.58
77023;BME280;65952;51.440;-2.054;2023-07-31T05:15:04;99328.19;;;18.63;76.13
77023;BME280;65952;51.440;-2.054;2023-07-31T05:17:29;99331.97;;;18.62;75.93
77023;BME280;65952;51.440;-2.054;2023-07-31T05:19:54;99338.56;;;18.66;75.93
77023;BME280;65952;51.440;-2.054;2023-07-31T05:22:20;99335.94;;;18.71;75.79
77023;BME280;65952;51.440;-2.054;2023-07-31T05:24:45;99321.84;;;18.74;75.67
77023;BME280;65952;51.440;-2.054;2023-07-31T05:27:11;99320.03;;;18.80;75.50
77023;BME280;65952;51.440;-2.054;2023-07-31T05:29:37;99328.84;;;18.70;75.68
77023;BME280;65952;51.440;-2.054;2023-07-31T05:32:03;99327.09;;;18.64;75.87
77023;BME280;65952;51.440;-2.054;2023-07-31T05:34:28;99318.97;;;18.81;75.03
77023;BME280;65952;51.440;-2.054;2023-07-31T05:36:54;99318.88;;;18.76;74.87
77023;BME280;65952;51.440;-2.054;2023-07-31T05:39:19;99309.34;;;18.90;74.05
77023;BME280;65952;51.440;-2.054;2023-07-31T05:41:45;99312.81;;;19.03;73.82
77023;BME280;65952;51.440;-2.054;2023-07-31T05:44:10;99310.19;;;18.91;73.54
77023;BME280;65952;51.440;-2.054;2023-07-31T05:46:36;99314.31;;;18.93;73.62
77023;BME280;65952;51.440;-2.054;2023-07-31T05:49:01;99317.09;;;18.98;73.22
77023;BME280;65952;51.440;-2.054;2023-07-31T05:51:27;99317.75;;;19.06;73.30
77023;BME280;65952;51.440;-2.054;2023-07-31T05:53:53;99313.94;;;19.07;73.31
77023;BME280;65952;51.440;-2.054;2023-07-31T05:56:18;99321.47;;;18.99;73.33
77023;BME280;65952;51.440;-2.054;2023-07-31T05:58:44;99330.03;;;19.08;73.27
77023;BME280;65952;51.440;-2.054;2023-07-31T06:01:09;99339.03;;;18.92;73.44
77023;BME280;65952;51.440;-2.054;2023-07-31T06:03:35;99333.59;;;18.92;73.35
77023;BME280;65952;51.440;-2.054;2023-07-31T06:06:00;99327.94;;;18.81;73.49
77023;BME280;65952;51.440;-2.054;2023-07-31T06:08:26;99324.00;;;18.72;73.64
77023;BME280;65952;51.440;-2.054;2023-07-31T06:10:54;99308.56;;;18.78;73.62
77023;BME280;65952;51.440;-2.054;2023-07-31T06:13:19;99297.16;;;18.93;73.38
77023;BME280;65952;51.440;-2.054;2023-07-31T06:15:45;99295.97;;;18.89;73.11
77023;BME280;65952;51.440;-2.054;2023-07-31T06:18:10;99302.25;;;19.06;72.57
77023;BME280;65952;51.440;-2.054;2023-07-31T06:20:36;99286.66;;;19.19;72.29
77023;BME280;65952;51.440;-2.054;2023-07-31T06:23:01;99290.38;;;19.12;72.60
77023;BME280;65952;51.440;-2.054;2023-07-31T06:25:27;99289.53;;;19.29;72.00
77023;BME280;65952;51.440;-2.054;2023-07-31T06:27:53;99291.59;;;19.61;71.04
77023;BME280;65952;51.440;-2.054;2023-07-31T06:30:19;99293.03;;;19.69;70.48
77023;BME280;65952;51.440;-2.054;2023-07-31T06:32:44;99287.97;;;19.55;70.38
77023;BME280;65952;51.440;-2.054;2023-07-31T06:35:10;99294.88;;;19.63;70.09
77023;BME280;65952;51.440;-2.054;2023-07-31T06:37:35;99296.50;;;19.42;70.92
77023;BME280;65952;51.440;-2.054;2023-07-31T06:40:00;99302.31;;;19.51;71.22
77023;BME280;65952;51.440;-2.054;2023-07-31T06:42:26;99300.59;;;19.44;70.56
77023;BME280;65952;51.440;-2.054;2023-07-31T06:44:52;99305.13;;;19.56;70.37
77023;BME280;65952;51.440;-2.054;2023-07-31T06:47:17;99300.00;;;19.59;70.35
77023;BME280;65952;51.440;-2.054;2023-07-31T06:49:42;99287.16;;;19.55;70.35
77023;BME280;65952;51.440;-2.054;2023-07-31T06:52:08;99283.50;;;19.66;70.19
77023;BME280;65952;51.440;-2.054;2023-07-31T06:54:34;99286.06;;;19.78;69.94
77023;BME280;65952;51.440;-2.054;2023-07-31T06:57:00;99274.78;;;19.47;70.39
77023;BME280;65952;51.440;-2.054;2023-07-31T06:59:25;99278.72;;;19.56;70.40
77023;BME280;65952;51.440;-2.054;2023-07-31T07:01:51;99274.78;;;19.47;70.56
77023;BME280;65952;51.440;-2.054;2023-07-31T07:04:16;99284.22;;;19.39;70.75
77023;BME280;65952;51.440;-2.054;2023-07-31T07:06:41;99282.34;;;19.23;71.21
77023;BME280;65952;51.440;-2.054;2023-07-31T07:09:07;99281.94;;;19.31;70.37
77023;BME280;65952;51.440;-2.054;2023-07-31T07:11:33;99284.84;;;19.46;70.02
77023;BME280;65952;51.440;-2.054;2023-07-31T07:13:59;99285.94;;;19.45;69.34
77023;BME280;65952;51.440;-2.054;2023-07-31T07:16:24;99271.13;;;18.97;69.59
77023;BME280;65952;51.440;-2.054;2023-07-31T07:18:50;99269.59;;;19.23;68.93
77023;BME280;65952;51.440;-2.054;2023-07-31T07:21:15;99284.53;;;19.21;68.64
77023;BME280;65952;51.440;-2.054;2023-07-31T07:23:43;99280.28;;;19.30;68.25
77023;BME280;65952;51.440;-2.054;2023-07-31T07:26:08;99287.50;;;19.41;67.89
77023;BME280;65952;51.440;-2.054;2023-07-31T07:28:34;99277.91;;;19.33;67.67
77023;BME280;65952;51.440;-2.054;2023-07-31T07:30:59;99271.91;;;19.14;68.25
77023;BME280;65952;51.440;-2.054;2023-07-31T07:33:25;99270.13;;;19.42;67.83
77023;BME280;65952;51.440;-2.054;2023-07-31T07:35:50;99269.16;;;19.54;67.71
77023;BME280;65952;51.440;-2.054;2023-07-31T07:38:15;99252.53;;;19.72;66.55
77023;BME280;65952;51.440;-2.054;2023-07-31T07:40:41;99249.94;;;19.83;66.02
77023;BME280;65952;51.440;-2.054;2023-07-31T07:43:07;99254.47;;;19.99;65.33
77023;BME280;65952;51.440;-2.054;2023-07-31T07:45:33;99244.44;;;20.05;65.08
77023;BME280;65952;51.440;-2.054;2023-07-31T07:47:58;99243.81;;;20.25;64.26
77023;BME280;65952;51.440;-2.054;2023-07-31T07:50:24;99242.53;;;20.33;64.38
77023;BME280;65952;51.440;-2.054;2023-07-31T07:52:49;99245.91;;;20.45;63.49
77023;BME280;65952;51.440;-2.054;2023-07-31T07:55:15;99238.31;;;20.20;64.29
77023;BME280;65952;51.440;-2.054;2023-07-31T07:57:40;99248.22;;;20.31;63.93
77023;BME280;65952;51.440;-2.054;2023-07-31T08:00:06;99243.63;;;20.32;64.16
77023;BME280;65952;51.440;-2.054;2023-07-31T08:02:32;99251.03;;;20.41;63.65
77023;BME280;65952;51.440;-2.054;2023-07-31T08:04:57;99251.94;;;20.20;63.74
77023;BME280;65952;51.440;-2.054;2023-07-31T08:07:23;99247.06;;;20.22;64.55
77023;BME280;65952;51.440;-2.054;2023-07-31T08:09:48;99256.22;;;20.10;64.42
77023;BME280;65952;51.440;-2.054;2023-07-31T08:12:14;99259.22;;;19.64;65.69
77023;BME280;65952;51.440;-2.054;2023-07-31T08:14:39;99265.75;;;19.63;65.55
77023;BME280;65952;51.440;-2.054;2023-07-31T08:17:05;99246.59;;;19.80;65.49
77023;BME280;65952;51.440;-2.054;2023-07-31T08:19:30;99236.78;;;19.79;65.26
77023;BME280;65952;51.440;-2.054;2023-07-31T08:21:55;99234.72;;;19.87;65.05
77023;BME280;65952;51.440;-2.054;2023-07-31T08:24:21;99221.09;;;19.87;65.22
77023;BME280;65952;51.440;-2.054;2023-07-31T08:26:46;99231.03;;;19.98;65.29
77023;BME280;65952;51.440;-2.054;2023-07-31T08:29:12;99233.34;;;20.11;65.35
77023;BME280;65952;51.440;-2.054;2023-07-31T08:31:37;99222.41;;;20.06;64.98
77023;BME280;65952;51.440;-2.054;2023-07-31T08:34:03;99209.28;;;20.03;64.58
77023;BME280;65952;51.440;-2.054;2023-07-31T08:36:28;99199.59;;;20.12;64.98
77023;BME280;65952;51.440;-2.054;2023-07-31T08:38:53;99199.75;;;20.33;63.88
77023;BME280;65952;51.440;-2.054;2023-07-31T08:41:19;99200.78;;;20.59;63.25
77023;BME280;65952;51.440;-2.054;2023-07-31T08:43:49;99197.09;;;20.76;62.32
77023;BME280;65952;51.440;-2.054;2023-07-31T08:46:15;99197.16;;;20.86;62.23
77023;BME280;65952;51.440;-2.054;2023-07-31T08:48:44;99205.91;;;20.88;61.80
77023;BME280;65952;51.440;-2.054;2023-07-31T08:51:10;99207.00;;;20.92;62.07
77023;BME280;65952;51.440;-2.054;2023-07-31T08:53:36;99227.47;;;20.95;61.74
77023;BME280;65952;51.440;-2.054;2023-07-31T08:56:02;99231.56;;;20.92;61.94
77023;BME280;65952;51.440;-2.054;2023-07-31T08:58:31;99232.69;;;21.02;61.28
77023;BME280;65952;51.440;-2.054;2023-07-31T09:00:57;99222.47;;;21.24;60.89
77023;BME280;65952;51.440;-2.054;2023-07-31T09:03:25;99206.38;;;21.33;59.77
77023;BME280;65952;51.440;-2.054;2023-07-31T09:05:51;99210.16;;;20.74;59.98
77023;BME280;65952;51.440;-2.054;2023-07-31T09:08:21;99222.78;;;20.85;59.91
77023;BME280;65952;51.440;-2.054;2023-07-31T09:10:47;99222.25;;;20.83;59.75
77023;BME280;65952;51.440;-2.054;2023-07-31T09:13:13;99232.81;;;20.74;60.73
77023;BME280;65952;51.440;-2.054;2023-07-31T09:15:40;99231.28;;;20.56;60.65
77023;BME280;65952;51.440;-2.054;2023-07-31T09:18:08;99229.41;;;20.62;60.37
77023;BME280;65952;51.440;-2.054;2023-07-31T09:20:34;99233.91;;;20.73;60.07
77023;BME280;65952;51.440;-2.054;2023-07-31T09:25:33;99213.81;;;20.90;59.29
77023;BME280;65952;51.440;-2.054;2023-07-31T09:28:01;99221.19;;;20.89;59.91
77023;BME280;65952;51.440;-2.054;2023-07-31T09:30:26;99222.47;;;20.82;60.10
77023;BME280;65952;51.440;-2.054;2023-07-31T09:33:01;99234.03;;;20.99;59.31
77023;BME280;65952;51.440;-2.054;2023-07-31T09:35:31;99225.81;;;20.89;59.65
77023;BME280;65952;51.440;-2.054;2023-07-31T09:38:11;99223.69;;;20.96;59.30
77023;BME280;65952;51.440;-2.054;2023-07-31T09:40:42;99214.75;;;20.68;60.02
77023;BME280;65952;51.440;-2.054;2023-07-31T09:43:10;99219.59;;;20.61;60.62
77023;BME280;65952;51.440;-2.054;2023-07-31T09:45:40;99209.19;;;20.53;60.56
77023;BME280;65952;51.440;-2.054;2023-07-31T09:48:10;99188.78;;;20.60;60.50
77023;BME280;65952;51.440;-2.054;2023-07-31T09:50:40;99191.00;;;20.69;60.10
77023;BME280;65952;51.440;-2.054;2023-07-31T09:53:07;99197.38;;;20.80;60.18
77023;BME280;65952;51.440;-2.054;2023-07-31T09:55:35;99210.75;;;20.81;60.14
77023;BME280;65952;51.440;-2.054;2023-07-31T09:58:11;99208.84;;;20.82;59.86
77023;BME280;65952;51.440;-2.054;2023-07-31T10:00:37;99203.44;;;20.87;59.46
77023;BME280;65952;51.440;-2.054;2023-07-31T10:03:08;99208.06;;;20.86;58.65
77023;BME280;65952;51.440;-2.054;2023-07-31T10:05:39;99217.41;;;20.96;58.14
77023;BME280;65952;51.440;-2.054;2023-07-31T10:08:07;99209.03;;;21.13;58.91
77023;BME280;65952;51.440;-2.054;2023-07-31T10:10:36;99227.41;;;21.33;58.17
77023;BME280;65952;51.440;-2.054;2023-07-31T10:13:03;99235.63;;;21.38;58.02
77023;BME280;65952;51.440;-2.054;2023-07-31T10:15:30;99236.38;;;21.23;58.43
77023;BME280;65952;51.440;-2.054;2023-07-31T10:17:57;99252.19;;;21.16;58.51
77023;BME280;65952;51.440;-2.054;2023-07-31T10:20:23;99258.56;;;20.94;59.48
77023;BME280;65952;51.440;-2.054;2023-07-31T10:22:51;99260.03;;;20.69;60.36
77023;BME280;65952;51.440;-2.054;2023-07-31T10:25:18;99257.47;;;20.57;60.37
77023;BME280;65952;51.440;-2.054;2023-07-31T10:27:47;99266.81;;;20.34;61.49
77023;BME280;65952;51.440;-2.054;2023-07-31T10:30:15;99257.94;;;20.49;61.88
77023;BME280;65952;51.440;-2.054;2023-07-31T10:32:43;99247.13;;;20.59;61.47
77023;BME280;65952;51.440;-2.054;2023-07-31T10:35:09;99233.72;;;20.53;61.82
77023;BME280;65952;51.440;-2.054;2023-07-31T10:37:42;99252.00;;;20.25;62.54
77023;BME280;65952;51.440;-2.054;2023-07-31T10:40:15;99271.13;;;20.30;62.52
77023;BME280;65952;51.440;-2.054;2023-07-31T10:42:47;99260.22;;;20.03;62.73
77023;BME280;65952;51.440;-2.054;2023-07-31T10:45:13;99249.25;;;19.92;63.35
77023;BME280;65952;51.440;-2.054;2023-07-31T10:47:45;99251.78;;;20.04;63.42
77023;BME280;65952;51.440;-2.054;2023-07-31T10:52:53;99255.34;;;20.05;62.71
77023;BME280;65952;51.440;-2.054;2023-07-31T10:57:56;99251.22;;;20.02;61.96
77023;BME280;65952;51.440;-2.054;2023-07-31T11:00:25;99246.63;;;20.03;60.89
77023;BME280;65952;51.440;-2.054;2023-07-31T11:02:59;99254.09;;;19.90;60.09
77023;BME280;65952;51.440;-2.054;2023-07-31T11:05:48;99264.84;;;20.02;59.41
77023;BME280;65952;51.440;-2.054;2023-07-31T11:10:49;99261.06;;;19.81;59.65
77023;BME280;65952;51.440;-2.054;2023-07-31T11:13:15;99270.19;;;19.92;60.01
77023;BME280;65952;51.440;-2.054;2023-07-31T11:15:40;99260.06;;;19.87;59.71
77023;BME280;65952;51.440;-2.054;2023-07-31T11:18:06;99270.16;;;19.70;60.46
77023;BME280;65952;51.440;-2.054;2023-07-31T11:20:34;99266.63;;;19.69;60.18
77023;BME280;65952;51.440;-2.054;2023-07-31T11:23:03;99259.03;;;19.71;59.58
77023;BME280;65952;51.440;-2.054;2023-07-31T11:25:32;99251.66;;;19.89;59.70
77023;BME280;65952;51.440;-2.054;2023-07-31T11:28:14;99241.03;;;20.20;58.63
77023;BME280;65952;51.440;-2.054;2023-07-31T11:30:41;99229.25;;;20.41;58.56
77023;BME280;65952;51.440;-2.054;2023-07-31T11:33:08;99207.22;;;20.48;58.59
77023;BME280;65952;51.440;-2.054;2023-07-31T11:35:36;99211.50;;;20.39;58.50
77023;BME280;65952;51.440;-2.054;2023-07-31T11:38:07;99207.81;;;20.18;58.64
77023;BME280;65952;51.440;-2.054;2023-07-31T11:40:41;99210.53;;;20.18;59.09
77023;BME280;65952;51.440;-2.054;2023-07-31T11:43:08;99215.84;;;20.07;59.27
77023;BME280;65952;51.440;-2.054;2023-07-31T11:45:34;99214.13;;;19.74;60.07
77023;BME280;65952;51.440;-2.054;2023-07-31T11:48:03;99211.47;;;19.57;60.82
77023;BME280;65952;51.440;-2.054;2023-07-31T11:50:33;99220.50;;;19.57;61.19
77023;BME280;65952;51.440;-2.054;2023-07-31T11:53:00;99221.03;;;19.59;62.25
77023;BME280;65952;51.440;-2.054;2023-07-31T11:55:28;99208.31;;;19.43;62.59
77023;BME280;65952;51.440;-2.054;2023-07-31T11:57:57;99201.50;;;19.40;63.05
77023;BME280;65952;51.440;-2.054;2023-07-31T12:00:23;99191.47;;;19.68;62.55
77023;BME280;65952;51.440;-2.054;2023-07-31T12:02:50;99164.06;;;19.75;62.61
77023;BME280;65952;51.440;-2.054;2023-07-31T12:05:16;99156.13;;;20.01;61.98
77023;BME280;65952;51.440;-2.054;2023-07-31T12:07:51;99153.09;;;19.97;61.83
77023;BME280;65952;51.440;-2.054;2023-07-31T12:10:31;99169.75;;;20.01;62.16
77023;BME280;65952;51.440;-2.054;2023-07-31T12:13:07;99181.06;;;19.87;62.23
77023;BME280;65952;51.440;-2.054;2023-07-31T12:15:41;99175.88;;;19.86;62.73
77023;BME280;65952;51.440;-2.054;2023-07-31T12:18:10;99162.19;;;19.80;63.48
77023;BME280;65952;51.440;-2.054;2023-07-31T12:20:40;99153.28;;;19.63;63.48
77023;BME280;65952;51.440;-2.054;2023-07-31T12:23:07;99142.34;;;19.58;63.66
77023;BME280;65952;51.440;-2.054;2023-07-31T12:25:32;99134.13;;;19.53;63.65
77023;BME280;65952;51.440;-2.054;2023-07-31T12:28:03;99121.09;;;19.55;63.71
77023;BME280;65952;51.440;-2.054;2023-07-31T12:30:32;99170.16;;;19.60;64.39
77023;BME280;65952;51.440;-2.054;2023-07-31T12:32:57;99177.91;;;19.46;65.48
77023;BME280;65952;51.440;-2.054;2023-07-31T12:35:35;99183.34;;;19.24;65.63
77023;BME280;65952;51.440;-2.054;2023-07-31T12:38:03;99163.72;;;19.22;66.19
77023;BME280;65952;51.440;-2.054;2023-07-31T12:40:29;99099.47;;;19.43;65.03
77023;BME280;65952;51.440;-2.054;2023-07-31T12:42:54;99123.25;;;19.53;64.76
77023;BME280;65952;51.440;-2.054;2023-07-31T12:45:20;99174.16;;;19.52;65.33
77023;BME280;65952;51.440;-2.054;2023-07-31T12:47:46;99190.28;;;19.59;65.40
77023;BME280;65952;51.440;-2.054;2023-07-31T12:50:12;99151.41;;;19.63;65.28
77023;BME280;65952;51.440;-2.054;2023-07-31T12:52:37;99246.50;;;19.70;65.63
77023;BME280;65952;51.440;-2.054;2023-07-31T12:55:03;99230.16;;;19.70;65.56
77023;BME280;65952;51.440;-2.054;2023-07-31T12:57:29;99250.53;;;19.45;65.90
77023;BME280;65952;51.440;-2.054;2023-07-31T12:59:55;99261.94;;;19.42;65.89
77023;BME280;65952;51.440;-2.054;2023-07-31T13:02:21;99241.88;;;19.26;66.31
77023;BME280;65952;51.440;-2.054;2023-07-31T13:04:46;99209.47;;;19.25;66.30